Time;durP1;ratioP1;P1;durP2;ratioP2;P2;SDS_P1;SDS_P2;PMS_P1;PMS_P2;Temp;Humidity;BMP_temperature;BMP_pressure;BME280_temperature;BME280_humidity;BME280_pressure;Samples;Min_cycle;Max_cycle;Signal;HPM_P1;HPM_P2
2021/06/30 00:00:33;;;;;;;27.63;13.60;;;14.50;99.90;;;;;;4997329;28;20042;-70
2021/06/30 00:03:00;;;;;;;24.42;12.90;;;14.40;99.90;;;;;;4991509;28;20107;-70
2021/06/30 00:05:25;;;;;;;26.95;13.18;;;14.50;99.90;;;;;;4995920;28;20466;-70
2021/06/30 00:07:53;;;;;;;27.83;13.63;;;14.40;99.90;;;;;;4993485;28;20093;-69
2021/06/30 00:10:20;;;;;;;30.80;14.00;;;14.50;99.90;;;;;;4990654;28;20058;-69
2021/06/30 00:12:45;;;;;;;34.70;14.45;;;14.50;99.90;;;;;;4998903;28;20060;-69
2021/06/30 00:15:18;;;;;;;27.60;14.50;;;14.50;99.90;;;;;;5002475;28;20046;-69
2021/06/30 00:17:45;;;;;;;27.92;15.38;;;14.50;99.90;;;;;;4995210;28;20107;-69
2021/06/30 00:20:12;;;;;;;35.67;16.67;;;14.40;99.90;;;;;;4989695;28;20046;-70
2021/06/30 00:22:38;;;;;;;46.42;15.60;;;14.50;99.90;;;;;;4996017;28;20065;-69
2021/06/30 00:25:05;;;;;;;32.33;15.65;;;14.50;99.90;;;;;;4991558;28;20128;-69
2021/06/30 00:27:32;;;;;;;28.55;14.70;;;14.40;99.90;;;;;;5003332;28;20050;-69
2021/06/30 00:29:57;;;;;;;29.70;14.30;;;14.40;99.90;;;;;;4997614;28;20061;-69
2021/06/30 00:32:23;;;;;;;30.02;15.07;;;14.40;99.90;;;;;;5003243;28;20046;-69
2021/06/30 00:34:49;;;;;;;39.70;16.15;;;14.40;99.90;;;;;;5002908;28;20053;-69
2021/06/30 00:37:15;;;;;;;32.88;16.45;;;14.40;99.90;;;;;;5004121;28;20096;-69
2021/06/30 00:39:40;;;;;;;37.92;17.55;;;14.40;99.90;;;;;;4996554;28;20054;-69
2021/06/30 00:42:06;;;;;;;39.75;17.58;;;14.40;99.90;;;;;;5002724;28;20122;-69
2021/06/30 00:44:35;;;;;;;28.67;15.40;;;14.40;99.90;;;;;;4994899;28;20046;-69
2021/06/30 00:47:02;;;;;;;32.30;16.42;;;14.40;99.90;;;;;;5001863;28;20042;-70
2021/06/30 00:49:28;;;;;;;28.42;15.30;;;14.40;99.90;;;;;;4998609;28;20038;-69
2021/06/30 00:51:54;;;;;;;24.38;14.07;;;14.40;99.90;;;;;;4989052;28;20058;-69
2021/06/30 00:54:20;;;;;;;35.78;15.20;;;14.50;99.90;;;;;;4996788;28;20053;-69
2021/06/30 00:56:47;;;;;;;33.88;13.73;;;14.50;99.90;;;;;;4994104;28;20034;-69
2021/06/30 00:59:13;;;;;;;24.95;13.32;;;14.50;99.90;;;;;;4999115;28;20057;-70
2021/06/30 01:01:40;;;;;;;34.28;14.18;;;14.50;99.90;;;;;;4988398;28;20042;-70
2021/06/30 01:04:07;;;;;;;33.53;14.70;;;14.50;99.90;;;;;;4995790;28;20042;-70
2021/06/30 01:06:38;;;;;;;21.75;11.07;;;14.50;99.90;;;;;;4988920;28;20049;-70
2021/06/30 01:09:06;;;;;;;23.10;11.77;;;14.50;99.90;;;;;;4996378;28;20046;-69
2021/06/30 01:11:39;;;;;;;37.35;12.80;;;14.50;99.90;;;;;;5002756;28;20204;-69
2021/06/30 01:14:04;;;;;;;28.10;12.93;;;14.50;99.90;;;;;;4992259;28;20133;-69
2021/06/30 01:16:31;;;;;;;26.27;12.38;;;14.40;99.90;;;;;;4993462;28;20048;-69
2021/06/30 01:18:57;;;;;;;25.08;11.32;;;14.40;99.90;;;;;;5002156;28;20060;-69
2021/06/30 01:21:23;;;;;;;34.13;12.95;;;14.40;99.90;;;;;;5002902;28;20046;-69
2021/06/30 01:23:49;;;;;;;32.42;13.23;;;14.40;99.90;;;;;;4995879;28;20042;-69
2021/06/30 01:26:16;;;;;;;32.60;13.27;;;14.40;99.90;;;;;;5000321;28;20101;-69
2021/06/30 01:28:42;;;;;;;30.38;12.10;;;14.40;99.90;;;;;;4997417;28;20042;-69
2021/06/30 01:31:08;;;;;;;26.67;12.60;;;14.40;99.90;;;;;;5002578;28;20046;-69
2021/06/30 01:33:35;;;;;;;28.30;12.70;;;14.40;99.90;;;;;;4997716;28;20042;-69
2021/06/30 01:36:01;;;;;;;27.88;14.23;;;14.30;99.90;;;;;;4992847;28;20057;-69
2021/06/30 01:38:29;;;;;;;26.33;12.32;;;14.30;99.90;;;;;;4998203;28;20088;-69
2021/06/30 01:40:56;;;;;;;25.13;12.63;;;14.30;99.90;;;;;;4996672;28;20043;-70
2021/06/30 01:43:23;;;;;;;22.23;12.05;;;14.30;99.90;;;;;;4999644;28;20043;-69
2021/06/30 01:45:54;;;;;;;23.83;13.15;;;14.30;99.90;;;;;;5000263;28;20053;-70
2021/06/30 01:48:20;;;;;;;27.33;13.50;;;14.30;99.90;;;;;;5002699;28;20042;-70
2021/06/30 01:50:47;;;;;;;31.05;15.10;;;14.20;99.90;;;;;;4993443;28;20135;-70
2021/06/30 01:53:13;;;;;;;27.80;15.60;;;14.20;99.90;;;;;;5001699;28;20042;-72
2021/06/30 01:55:39;;;;;;;33.22;15.93;;;14.20;99.90;;;;;;5000310;28;20058;-71
2021/06/30 01:58:05;;;;;;;30.02;15.57;;;14.10;99.90;;;;;;4999380;28;20047;-70
2021/06/30 02:00:31;;;;;;;42.67;17.08;;;14.10;99.90;;;;;;5000522;28;20056;-70
2021/06/30 02:03:00;;;;;;;32.55;15.82;;;14.10;99.90;;;;;;4997253;28;20061;-71
2021/06/30 02:05:27;;;;;;;31.70;15.25;;;14.00;99.90;;;;;;4994985;28;20146;-70
2021/06/30 02:07:56;;;;;;;32.25;16.42;;;14.10;99.90;;;;;;4994835;28;20050;-69
2021/06/30 02:10:23;;;;;;;27.25;14.05;;;14.00;99.90;;;;;;4997699;28;20042;-69
2021/06/30 02:12:50;;;;;;;33.55;14.52;;;14.00;99.90;;;;;;4997417;28;20042;-69
2021/06/30 02:15:19;;;;;;;44.17;18.05;;;14.00;99.90;;;;;;4997717;28;20058;-69
2021/06/30 02:17:54;;;;;;;42.35;17.27;;;14.00;99.90;;;;;;4999852;28;20070;-69
2021/06/30 02:20:20;;;;;;;29.73;15.25;;;14.00;99.90;;;;;;5002736;28;20108;-68
2021/06/30 02:22:47;;;;;;;29.42;14.25;;;13.90;99.90;;;;;;4994715;28;20043;-68
2021/06/30 02:25:16;;;;;;;29.83;16.75;;;13.90;99.90;;;;;;4997391;28;20097;-68
2021/06/30 02:27:43;;;;;;;43.15;18.75;;;13.90;99.90;;;;;;5001145;28;20049;-68
2021/06/30 02:30:14;;;;;;;24.17;14.85;;;13.90;99.90;;;;;;4991890;28;20057;-69
2021/06/30 02:32:40;;;;;;;27.90;16.05;;;13.90;99.90;;;;;;4987911;28;20053;-68
2021/06/30 02:35:09;;;;;;;28.90;15.60;;;13.90;99.90;;;;;;4991374;28;20058;-69
2021/06/30 02:37:36;;;;;;;33.08;15.75;;;13.90;99.90;;;;;;4999988;28;20129;-69
2021/06/30 02:40:05;;;;;;;36.15;15.07;;;13.90;99.90;;;;;;5002479;28;20077;-69
2021/06/30 02:42:31;;;;;;;31.08;15.43;;;13.80;99.90;;;;;;5003480;28;20117;-69
2021/06/30 02:44:56;;;;;;;34.25;15.15;;;13.80;99.90;;;;;;5005986;28;20049;-69
2021/06/30 02:47:22;;;;;;;32.10;14.35;;;13.80;99.90;;;;;;5001210;28;20045;-69
2021/06/30 02:49:48;;;;;;;29.80;14.40;;;13.80;99.90;;;;;;4993951;28;20057;-69
2021/06/30 02:52:14;;;;;;;28.50;14.43;;;13.80;99.90;;;;;;4989490;28;20085;-69
2021/06/30 02:54:40;;;;;;;37.15;16.15;;;13.80;99.90;;;;;;4992280;28;20053;-69
2021/06/30 02:57:06;;;;;;;28.85;14.82;;;13.80;99.90;;;;;;4997574;28;20077;-69
2021/06/30 02:59:31;;;;;;;35.20;15.93;;;13.80;99.90;;;;;;5005217;28;20046;-69
2021/06/30 03:01:58;;;;;;;38.95;18.55;;;13.80;99.90;;;;;;5005918;28;20054;-69
2021/06/30 03:04:23;;;;;;;27.25;14.02;;;13.70;99.90;;;;;;5005877;28;20062;-69
2021/06/30 03:06:50;;;;;;;24.83;15.65;;;13.70;99.90;;;;;;5000214;28;20049;-69
2021/06/30 03:09:19;;;;;;;32.75;14.80;;;13.70;99.90;;;;;;4994819;28;20069;-69
2021/06/30 03:11:45;;;;;;;32.25;16.33;;;13.80;99.90;;;;;;4991228;28;20093;-69
2021/06/30 03:14:11;;;;;;;25.45;15.13;;;13.70;99.90;;;;;;5005831;28;20061;-69
2021/06/30 03:16:38;;;;;;;37.28;17.90;;;13.70;99.90;;;;;;4993130;28;20054;-69
2021/06/30 03:19:04;;;;;;;35.22;16.40;;;13.70;99.90;;;;;;4999431;28;20047;-69
2021/06/30 03:21:30;;;;;;;21.45;14.02;;;13.70;99.90;;;;;;4990466;28;20134;-69
2021/06/30 03:23:55;;;;;;;24.95;14.68;;;13.80;99.90;;;;;;5004162;28;20038;-69
2021/06/30 03:26:21;;;;;;;29.02;14.95;;;13.80;99.90;;;;;;5002267;28;20178;-69
2021/06/30 03:28:47;;;;;;;24.95;14.00;;;13.80;99.90;;;;;;5003573;28;20046;-69
2021/06/30 03:31:13;;;;;;;29.80;14.93;;;13.80;99.90;;;;;;4989741;28;20054;-69
2021/06/30 03:33:40;;;;;;;24.88;13.32;;;13.80;99.90;;;;;;4997229;28;20046;-69
2021/06/30 03:36:05;;;;;;;31.92;14.55;;;13.80;99.90;;;;;;5000947;28;20054;-69
2021/06/30 03:38:35;;;;;;;29.33;14.63;;;13.80;99.90;;;;;;5002533;28;20042;-69
2021/06/30 03:41:01;;;;;;;28.98;13.98;;;13.80;99.90;;;;;;5003231;28;20046;-69
2021/06/30 03:43:27;;;;;;;29.00;12.77;;;13.80;99.90;;;;;;4996335;28;20046;-69
2021/06/30 03:45:53;;;;;;;26.48;13.07;;;13.90;99.90;;;;;;4997476;28;20114;-69
2021/06/30 03:48:18;;;;;;;20.23;11.73;;;13.80;99.90;;;;;;4994414;28;20062;-70
2021/06/30 03:50:44;;;;;;;22.33;11.98;;;13.80;99.90;;;;;;5000986;28;20046;-70
2021/06/30 03:53:10;;;;;;;30.08;12.05;;;13.80;99.90;;;;;;5002693;28;20046;-70
2021/06/30 03:55:36;;;;;;;24.92;11.93;;;13.80;99.90;;;;;;5001754;28;20082;-70
2021/06/30 03:58:01;;;;;;;22.35;11.95;;;13.80;99.90;;;;;;5004879;28;20057;-70
2021/06/30 04:00:27;;;;;;;14.52;10.88;;;13.80;99.90;;;;;;5000824;28;20031;-70
2021/06/30 04:02:56;;;;;;;22.83;12.60;;;13.80;99.90;;;;;;5004937;28;20073;-70
2021/06/30 04:05:23;;;;;;;23.10;11.82;;;13.80;99.90;;;;;;5002365;28;20046;-70
2021/06/30 04:07:50;;;;;;;18.90;11.82;;;13.80;99.90;;;;;;5003200;28;20054;-70
2021/06/30 04:10:19;;;;;;;26.42;12.77;;;13.80;99.90;;;;;;5002704;28;20065;-70
2021/06/30 04:12:45;;;;;;;28.10;12.32;;;13.80;99.90;;;;;;5001813;28;20049;-70
2021/06/30 04:15:11;;;;;;;16.95;11.32;;;13.80;99.90;;;;;;5002310;28;20105;-70
2021/06/30 04:17:37;;;;;;;28.25;12.27;;;13.80;99.90;;;;;;4993375;28;20034;-69
2021/06/30 04:20:06;;;;;;;25.85;11.10;;;13.80;99.90;;;;;;4996616;28;20113;-69
2021/06/30 04:22:32;;;;;;;24.20;11.63;;;13.90;99.90;;;;;;4992399;28;20066;-69
2021/06/30 04:24:57;;;;;;;22.38;10.93;;;13.90;99.90;;;;;;4999071;28;20061;-70
2021/06/30 04:27:23;;;;;;;20.20;11.23;;;13.90;99.90;;;;;;4993463;28;20625;-70
2021/06/30 04:29:49;;;;;;;27.02;11.05;;;14.00;99.90;;;;;;4999692;28;20046;-70
2021/06/30 04:32:15;;;;;;;25.02;11.38;;;13.90;99.90;;;;;;5001324;28;20046;-70
2021/06/30 04:34:41;;;;;;;27.52;13.85;;;13.90;99.90;;;;;;4999161;28;20045;-70
2021/06/30 04:37:06;;;;;;;31.33;12.25;;;14.00;99.90;;;;;;4995346;28;20100;-70
2021/06/30 04:39:32;;;;;;;25.20;12.25;;;14.00;99.90;;;;;;4997568;28;20038;-70
2021/06/30 04:41:58;;;;;;;27.23;12.80;;;14.00;99.90;;;;;;5003228;28;20047;-70
2021/06/30 04:44:24;;;;;;;23.98;11.85;;;14.00;99.90;;;;;;5003215;28;20049;-70
2021/06/30 04:46:50;;;;;;;23.63;11.98;;;14.00;99.90;;;;;;4996732;28;20069;-70
2021/06/30 04:49:15;;;;;;;28.10;13.70;;;14.00;99.90;;;;;;5002973;28;20054;-70
2021/06/30 04:51:42;;;;;;;28.98;13.23;;;14.00;99.90;;;;;;4998362;28;20045;-70
2021/06/30 04:54:08;;;;;;;32.40;12.77;;;14.00;99.90;;;;;;5003629;28;20065;-70
2021/06/30 04:56:39;;;;;;;29.40;12.80;;;13.90;99.90;;;;;;4993690;28;20066;-70
2021/06/30 04:59:09;;;;;;;28.10;13.35;;;14.00;99.90;;;;;;4998869;28;20050;-70
2021/06/30 05:01:35;;;;;;;28.23;13.32;;;14.00;99.90;;;;;;5001324;28;20046;-70
2021/06/30 05:04:02;;;;;;;25.92;12.93;;;13.90;99.90;;;;;;4996123;28;20050;-71
2021/06/30 05:06:28;;;;;;;29.60;12.27;;;14.00;99.90;;;;;;4988766;28;20498;-70
2021/06/30 05:08:54;;;;;;;25.98;12.60;;;14.00;99.90;;;;;;4998791;28;20049;-70
2021/06/30 05:11:20;;;;;;;36.00;14.32;;;14.10;99.90;;;;;;5002989;28;20046;-70
2021/06/30 05:13:46;;;;;;;29.60;12.55;;;14.10;99.90;;;;;;5003599;28;20046;-70
2021/06/30 05:16:11;;;;;;;21.92;11.98;;;14.10;99.90;;;;;;5003537;28;20046;-70
2021/06/30 05:18:37;;;;;;;27.58;12.32;;;14.10;99.90;;;;;;5002701;28;20102;-70
2021/06/30 05:21:03;;;;;;;28.95;11.45;;;14.20;99.90;;;;;;5003370;28;20054;-70
2021/06/30 05:23:29;;;;;;;29.17;13.15;;;14.30;99.90;;;;;;5003135;28;20097;-70
2021/06/30 05:25:56;;;;;;;20.33;12.40;;;14.20;99.90;;;;;;5003445;28;20170;-70
2021/06/30 05:28:22;;;;;;;26.88;12.75;;;14.20;99.90;;;;;;5006991;28;20046;-70
2021/06/30 05:30:48;;;;;;;30.10;13.70;;;14.20;99.90;;;;;;4995598;28;20061;-70
2021/06/30 05:33:14;;;;;;;28.42;12.38;;;14.20;99.90;;;;;;5003485;28;20042;-70
2021/06/30 05:35:40;;;;;;;20.98;12.25;;;14.30;99.90;;;;;;5002993;28;20054;-70
2021/06/30 05:38:05;;;;;;;18.90;11.13;;;14.30;99.90;;;;;;5002282;28;20056;-70
2021/06/30 05:40:31;;;;;;;30.98;11.93;;;14.30;99.90;;;;;;5002029;28;20034;-70
2021/06/30 05:42:57;;;;;;;28.25;11.57;;;14.30;99.90;;;;;;5003263;28;20054;-69
2021/06/30 05:45:23;;;;;;;19.88;11.07;;;14.30;99.90;;;;;;5002624;28;20073;-70
2021/06/30 05:47:49;;;;;;;23.30;10.27;;;14.30;99.90;;;;;;5001583;28;20046;-70
2021/06/30 05:50:17;;;;;;;24.40;10.93;;;14.30;99.90;;;;;;5009398;28;20052;-70
2021/06/30 05:52:44;;;;;;;23.35;10.60;;;14.30;99.90;;;;;;5003354;28;20062;-70
2021/06/30 05:55:11;;;;;;;24.70;10.68;;;14.40;99.90;;;;;;5002782;28;20434;-70
2021/06/30 05:57:37;;;;;;;24.63;9.38;;;14.40;99.90;;;;;;5002785;28;20046;-70
2021/06/30 06:00:12;;;;;;;21.48;10.27;;;14.40;99.90;;;;;;4993198;28;20053;-69
2021/06/30 06:02:37;;;;;;;25.58;9.77;;;14.50;99.90;;;;;;5002141;28;20058;-70
2021/06/30 06:05:04;;;;;;;18.40;9.52;;;14.50;99.90;;;;;;4991610;28;20494;-70
2021/06/30 06:07:30;;;;;;;24.53;10.37;;;14.60;99.90;;;;;;5003463;28;20042;-69
2021/06/30 06:09:58;;;;;;;18.20;8.60;;;14.60;99.90;;;;;;4988789;28;20047;-70
2021/06/30 06:12:25;;;;;;;26.08;10.90;;;14.70;99.90;;;;;;5002683;28;20078;-70
2021/06/30 06:14:51;;;;;;;16.13;8.63;;;14.80;99.90;;;;;;4991593;28;20062;-69
2021/06/30 06:17:17;;;;;;;20.65;8.32;;;14.80;99.90;;;;;;5006003;28;20313;-69
2021/06/30 06:19:42;;;;;;;15.63;8.38;;;14.90;99.90;;;;;;5006107;28;20099;-69
2021/06/30 06:22:08;;;;;;;22.25;9.30;;;14.90;99.90;;;;;;5003084;28;20093;-69
2021/06/30 06:24:34;;;;;;;16.27;8.93;;;14.90;99.90;;;;;;4992759;28;20573;-69
2021/06/30 06:27:00;;;;;;;18.80;9.68;;;14.90;99.90;;;;;;4998466;28;20046;-69
2021/06/30 06:29:27;;;;;;;24.98;8.65;;;14.90;99.90;;;;;;4992971;28;20046;-69
2021/06/30 06:31:53;;;;;;;22.17;9.10;;;15.00;99.90;;;;;;5000180;28;20149;-69
2021/06/30 06:34:20;;;;;;;19.67;8.52;;;15.00;99.90;;;;;;5006516;28;20038;-69
2021/06/30 06:36:50;;;;;;;17.43;9.23;;;15.00;99.90;;;;;;5004266;28;20491;-69
2021/06/30 06:39:20;;;;;;;22.15;9.25;;;14.90;99.90;;;;;;5006031;28;20529;-69
2021/06/30 06:41:48;;;;;;;24.40;9.32;;;14.90;99.90;;;;;;5006442;28;20053;-70
2021/06/30 06:44:14;;;;;;;16.88;8.32;;;14.90;99.90;;;;;;5006086;28;20038;-69
2021/06/30 06:46:40;;;;;;;23.00;9.83;;;14.90;99.90;;;;;;4999830;28;20050;-69
2021/06/30 06:49:07;;;;;;;26.75;9.02;;;14.90;99.90;;;;;;5001962;28;20344;-70
2021/06/30 06:51:35;;;;;;;25.65;8.65;;;14.90;99.90;;;;;;5006248;28;20092;-70
2021/06/30 06:54:00;;;;;;;15.32;8.23;;;14.90;99.90;;;;;;5004987;28;20107;-70
2021/06/30 06:56:27;;;;;;;19.23;7.63;;;14.90;99.90;;;;;;5005367;28;20038;-70
2021/06/30 06:58:54;;;;;;;22.45;8.48;;;14.90;99.90;;;;;;5005670;28;20117;-70
2021/06/30 07:01:20;;;;;;;18.33;7.72;;;14.90;99.90;;;;;;5005842;28;20366;-70
2021/06/30 07:03:47;;;;;;;20.70;7.97;;;14.90;99.90;;;;;;4999310;28;20073;-69
2021/06/30 07:06:13;;;;;;;16.52;7.40;;;14.80;99.90;;;;;;5005581;28;20050;-69
2021/06/30 07:08:38;;;;;;;26.55;9.00;;;14.80;99.90;;;;;;5004932;28;20133;-69
2021/06/30 07:11:05;;;;;;;15.70;7.28;;;14.80;99.90;;;;;;5004377;28;20057;-69
2021/06/30 07:13:31;;;;;;;25.40;7.80;;;14.90;99.90;;;;;;5003910;28;20046;-69
2021/06/30 07:15:56;;;;;;;19.90;8.95;;;14.80;99.90;;;;;;5006308;28;20051;-69
2021/06/30 07:18:22;;;;;;;19.10;8.30;;;14.80;99.90;;;;;;5005350;28;20042;-69
2021/06/30 07:20:48;;;;;;;15.25;7.18;;;14.90;99.90;;;;;;5005501;28;20043;-69
2021/06/30 07:23:14;;;;;;;17.00;7.05;;;14.80;99.90;;;;;;4992670;28;20039;-69
2021/06/30 07:25:40;;;;;;;20.77;7.40;;;14.80;99.90;;;;;;5003096;28;20301;-69
2021/06/30 07:28:07;;;;;;;16.15;7.40;;;14.80;99.90;;;;;;5005822;28;20050;-69
2021/06/30 07:30:33;;;;;;;21.75;8.60;;;14.90;99.90;;;;;;5001528;28;20073;-70
2021/06/30 07:33:00;;;;;;;17.25;7.70;;;14.80;99.90;;;;;;4997212;28;20042;-70
2021/06/30 07:35:26;;;;;;;13.95;7.80;;;14.90;99.90;;;;;;5000000;28;20102;-71
2021/06/30 07:37:52;;;;;;;17.27;8.15;;;14.80;99.90;;;;;;4998572;28;20069;-69
2021/06/30 07:40:18;;;;;;;25.67;8.68;;;14.90;99.90;;;;;;5004304;28;20042;-70
2021/06/30 07:42:44;;;;;;;18.58;7.93;;;14.80;99.90;;;;;;5005889;28;20049;-70
2021/06/30 07:45:11;;;;;;;19.38;8.32;;;14.80;99.90;;;;;;4994218;28;20105;-69
2021/06/30 07:47:37;;;;;;;21.70;7.67;;;14.70;99.90;;;;;;4995821;28;20054;-70
2021/06/30 07:50:07;;;;;;;16.58;7.95;;;14.80;99.90;;;;;;4997661;28;20047;-71
2021/06/30 07:52:33;;;;;;;15.48;7.63;;;14.70;99.90;;;;;;4997420;28;20125;-71
2021/06/30 07:55:00;;;;;;;20.90;7.80;;;14.70;99.90;;;;;;4994837;28;20053;-71
2021/06/30 07:57:25;;;;;;;21.03;9.53;;;14.60;99.90;;;;;;4993264;28;20046;-70
2021/06/30 07:59:51;;;;;;;17.58;8.38;;;14.60;99.90;;;;;;4987787;28;20126;-71
2021/06/30 08:02:17;;;;;;;20.88;8.48;;;14.60;99.90;;;;;;4990891;28;20106;-72
2021/06/30 08:04:43;;;;;;;20.60;8.65;;;14.60;99.90;;;;;;4992824;28;20051;-72
2021/06/30 08:07:09;;;;;;;17.25;8.70;;;14.60;99.90;;;;;;4989459;28;20050;-72
2021/06/30 08:09:36;;;;;;;19.00;8.98;;;14.60;99.90;;;;;;5001097;28;20050;-73
2021/06/30 08:12:05;;;;;;;19.23;9.37;;;14.60;99.90;;;;;;4988737;28;20049;-73
2021/06/30 08:14:34;;;;;;;19.23;8.38;;;14.70;99.90;;;;;;4995871;28;20046;-73
2021/06/30 08:17:04;;;;;;;20.42;7.90;;;14.70;99.90;;;;;;4994872;28;20038;-69
2021/06/30 08:19:30;;;;;;;17.88;8.43;;;14.60;99.90;;;;;;4987253;28;20042;-75
2021/06/30 08:21:56;;;;;;;20.77;9.20;;;14.70;99.90;;;;;;4989447;28;20052;-71
2021/06/30 08:24:22;;;;;;;16.33;8.60;;;14.60;99.90;;;;;;4996027;28;20057;-73
2021/06/30 08:26:48;;;;;;;19.70;10.35;;;14.50;99.90;;;;;;4990607;28;20058;-68
2021/06/30 08:29:13;;;;;;;21.35;10.52;;;14.50;99.90;;;;;;4997219;28;20102;-67
2021/06/30 08:31:41;;;;;;;14.23;8.85;;;14.50;99.90;;;;;;4990263;28;20073;-69
2021/06/30 08:34:06;;;;;;;16.40;8.77;;;14.50;99.90;;;;;;4990610;28;20065;-68
2021/06/30 08:36:32;;;;;;;21.23;10.15;;;14.50;99.90;;;;;;4993224;28;20046;-68
2021/06/30 08:38:58;;;;;;;21.17;9.23;;;14.60;99.90;;;;;;4994456;28;20067;-68
2021/06/30 08:41:24;;;;;;;19.63;9.02;;;14.50;99.90;;;;;;4992999;28;20129;-68
2021/06/30 08:43:50;;;;;;;22.75;10.27;;;14.50;99.90;;;;;;4993141;28;20569;-68
2021/06/30 08:46:20;;;;;;;23.35;11.32;;;14.50;99.90;;;;;;4995666;28;20042;-68
2021/06/30 08:48:46;;;;;;;20.70;10.18;;;14.50;99.90;;;;;;4995684;28;20046;-68
2021/06/30 08:51:14;;;;;;;18.10;9.20;;;14.60;99.90;;;;;;4992728;28;20053;-68
2021/06/30 08:53:41;;;;;;;24.60;10.13;;;14.50;99.90;;;;;;4990948;28;20051;-68
2021/06/30 08:56:09;;;;;;;17.88;9.20;;;14.40;99.90;;;;;;4996131;28;20057;-68
2021/06/30 08:58:35;;;;;;;20.00;10.82;;;14.30;99.90;;;;;;4993892;28;20042;-68
2021/06/30 09:01:02;;;;;;;25.63;11.07;;;14.30;99.90;;;;;;4992736;28;20097;-68
2021/06/30 09:03:28;;;;;;;29.35;12.23;;;14.30;99.90;;;;;;4991371;28;20046;-70
2021/06/30 09:08:43;;;;;;;23.70;11.75;;;14.30;99.90;;;;;;4999189;28;20376;-68
2021/06/30 09:11:30;;;;;;;18.73;10.10;;;14.20;99.90;;;;;;4990707;28;20055;-68
2021/06/30 09:14:30;;;;;;;25.33;11.82;;;14.30;99.90;;;;;;4987816;28;20051;-68
2021/06/30 09:20:09;;;;;;;24.90;11.70;;;14.30;99.90;;;;;;4997703;28;20390;-67
2021/06/30 09:22:47;;;;;;;18.92;10.90;;;14.30;99.90;;;;;;4997159;28;20046;-67
2021/06/30 09:25:35;;;;;;;29.07;12.23;;;14.30;99.90;;;;;;5005347;28;20062;-67
2021/06/30 09:28:15;;;;;;;30.52;13.35;;;14.30;99.90;;;;;;5000866;28;20089;-67
2021/06/30 09:31:02;;;;;;;26.85;13.35;;;14.40;99.90;;;;;;4986238;28;20062;-67
2021/06/30 09:33:48;;;;;;;28.92;12.57;;;14.40;99.90;;;;;;5001785;28;20055;-67
2021/06/30 09:36:14;;;;;;;25.05;12.93;;;14.40;99.90;;;;;;5001361;28;20095;-67
2021/06/30 09:38:44;;;;;;;31.58;14.23;;;14.50;99.90;;;;;;4998182;28;20047;-66
2021/06/30 09:41:29;;;;;;;20.33;11.48;;;14.30;99.90;;;;;;5000987;28;20128;-67
2021/06/30 09:44:05;;;;;;;34.25;12.75;;;14.40;99.90;;;;;;5000927;28;20070;-67
2021/06/30 09:46:32;;;;;;;19.42;12.23;;;14.50;99.90;;;;;;5000930;28;20050;-66
2021/06/30 09:49:10;;;;;;;28.50;13.45;;;14.60;99.90;;;;;;5000924;28;20140;-67
2021/06/30 09:51:37;;;;;;;26.65;13.93;;;14.60;99.90;;;;;;5009601;28;20054;-73
2021/06/30 09:54:04;;;;;;;;;;;14.70;99.90;;;;;;4998591;28;20054;-80
2021/06/30 09:56:37;;;;;;;20.20;12.80;;;14.80;99.90;;;;;;4997615;28;20428;-78
2021/06/30 09:59:09;;;;;;;22.83;10.82;;;14.80;99.90;;;;;;4997091;28;20038;-76
2021/06/30 10:01:36;;;;;;;23.75;11.82;;;14.70;99.90;;;;;;4993152;28;20053;-78
2021/06/30 10:04:03;;;;;;;30.27;13.05;;;14.70;99.90;;;;;;4989710;28;20576;-79
2021/06/30 10:06:34;;;;;;;23.13;12.70;;;14.70;99.90;;;;;;4991419;28;20494;-77
2021/06/30 10:09:05;;;;;;;24.48;11.77;;;14.70;99.90;;;;;;4989151;28;20109;-78
2021/06/30 10:11:34;;;;;;;20.55;12.35;;;14.80;99.90;;;;;;4995802;28;20053;-68
2021/06/30 10:14:01;;;;;;;21.92;11.82;;;14.80;99.90;;;;;;4995149;28;20042;-68
2021/06/30 10:16:28;;;;;;;25.02;13.32;;;14.70;99.90;;;;;;4991840;28;20043;-67
2021/06/30 10:18:56;;;;;;;24.83;11.77;;;14.80;99.90;;;;;;4996727;28;20046;-67
2021/06/30 10:21:30;;;;;;;24.08;13.35;;;14.70;99.90;;;;;;4989722;28;20053;-67
2021/06/30 10:23:57;;;;;;;22.65;13.70;;;14.70;99.90;;;;;;5003368;28;20061;-67
2021/06/30 10:26:24;;;;;;;21.92;12.50;;;14.70;99.90;;;;;;4995619;28;20050;-64
2021/06/30 10:28:53;;;;;;;23.38;12.85;;;14.70;99.90;;;;;;4992471;28;20057;-66
2021/06/30 10:31:19;;;;;;;25.92;12.77;;;14.70;99.90;;;;;;4993521;28;20042;-70
2021/06/30 10:34:02;;;;;;;22.08;12.20;;;14.70;99.90;;;;;;4992794;28;20532;-70
2021/06/30 10:36:53;;;;;;;22.27;10.70;;;14.70;99.90;;;;;;4999588;28;20390;-69
2021/06/30 10:39:39;;;;;;;23.23;11.93;;;14.50;99.90;;;;;;4994011;28;20075;-71
2021/06/30 10:42:15;;;;;;;20.20;11.80;;;14.40;99.90;;;;;;4993898;28;20057;-63
2021/06/30 10:45:13;;;;;;;26.65;13.23;;;14.40;99.90;;;;;;4998605;28;20069;-78
2021/06/30 10:47:52;;;;;;;22.40;12.18;;;14.30;99.90;;;;;;4992422;28;20047;-69
2021/06/30 10:50:31;;;;;;;21.63;12.40;;;14.20;99.90;;;;;;4993649;28;20081;-66
2021/06/30 10:53:03;;;;;;;27.45;12.90;;;14.10;99.90;;;;;;4997107;28;20494;-68
2021/06/30 10:55:32;;;;;;;24.27;12.02;;;14.10;99.90;;;;;;4996096;28;20106;-71
2021/06/30 10:58:13;;;;;;;18.45;11.43;;;14.10;99.90;;;;;;4991990;28;20051;-74
2021/06/30 11:00:55;;;;;;;34.83;11.48;;;14.10;99.90;;;;;;4997771;28;20049;-78
2021/06/30 11:03:42;;;;;;;20.67;11.40;;;14.10;99.90;;;;;;4964910;28;1085255;-77
2021/06/30 11:06:16;;;;;;;20.15;11.40;;;14.10;99.90;;;;;;4996234;28;20039;-77
2021/06/30 11:08:56;;;;;;;19.33;10.27;;;14.20;99.90;;;;;;4995940;28;20077;-73
2021/06/30 11:11:34;;;;;;;14.73;9.63;;;14.10;99.90;;;;;;5005476;28;20093;-72
2021/06/30 11:14:02;;;;;;;14.88;8.18;;;14.20;99.90;;;;;;4997239;28;20073;-73
2021/06/30 11:16:39;;;;;;;19.95;9.60;;;14.20;99.90;;;;;;5005002;28;20050;-72
2021/06/30 11:19:18;;;;;;;18.42;8.10;;;14.10;99.90;;;;;;4990885;28;20120;-65
2021/06/30 11:21:46;;;;;;;18.40;9.30;;;14.10;99.90;;;;;;4989470;28;20047;-71
2021/06/30 11:24:49;;;;;;;11.48;7.22;;;14.10;99.90;;;;;;5003878;28;20042;-74
2021/06/30 11:27:17;;;;;;;15.70;8.18;;;13.90;99.90;;;;;;4992807;28;20046;-69
2021/06/30 11:29:46;;;;;;;16.50;9.05;;;13.90;99.90;;;;;;4994202;28;20047;-78
2021/06/30 11:32:31;;;;;;;17.58;10.27;;;13.90;99.90;;;;;;4995341;28;20546;-77
2021/06/30 11:35:24;;;;;;;18.73;9.38;;;14.00;99.90;;;;;;4990617;28;20043;-71
2021/06/30 11:38:00;;;;;;;14.60;8.00;;;13.90;99.90;;;;;;4988360;28;20089;-71
2021/06/30 11:42:55;;;;;;;18.23;8.93;;;13.90;99.90;;;;;;4998004;28;20046;-70
2021/06/30 11:45:32;;;;;;;17.17;10.32;;;13.90;99.90;;;;;;4998469;28;20042;-73
2021/06/30 11:48:03;;;;;;;14.35;8.38;;;13.90;99.90;;;;;;4989888;28;20043;-73
2021/06/30 11:50:43;;;;;;;15.13;10.52;;;13.80;99.90;;;;;;4990901;28;20046;-74
2021/06/30 11:53:09;;;;;;;14.52;9.15;;;13.90;99.90;;;;;;4997270;28;20094;-73
2021/06/30 11:55:39;;;;;;;14.70;8.40;;;13.80;99.90;;;;;;4990521;28;20050;-74
2021/06/30 11:58:06;;;;;;;12.30;9.23;;;13.70;99.90;;;;;;5000977;28;20046;-73
2021/06/30 12:00:34;;;;;;;17.77;9.80;;;13.70;99.90;;;;;;4989925;28;20050;-76
2021/06/30 12:03:03;;;;;;;20.48;10.05;;;13.70;99.90;;;;;;4996480;28;20081;-75
2021/06/30 12:05:30;;;;;;;19.13;9.45;;;13.70;99.90;;;;;;4988060;28;20119;-77
2021/06/30 12:07:58;;;;;;;17.45;10.10;;;13.70;99.90;;;;;;4994673;28;20065;-77
2021/06/30 12:10:31;;;;;;;18.40;9.85;;;13.70;99.90;;;;;;4992967;28;20042;-78
2021/06/30 12:13:00;;;;;;;18.85;10.70;;;13.80;99.90;;;;;;4987027;28;20061;-76
2021/06/30 12:15:28;;;;;;;15.48;9.98;;;13.80;99.90;;;;;;5001971;28;20096;-68
2021/06/30 12:17:56;;;;;;;14.57;9.88;;;13.80;99.90;;;;;;4997421;28;20078;-68
2021/06/30 12:20:24;;;;;;;23.13;11.45;;;13.90;99.90;;;;;;4994119;28;20054;-73
2021/06/30 12:22:49;;;;;;;17.48;10.00;;;14.00;99.90;;;;;;4987979;28;20035;-70
2021/06/30 12:25:18;;;;;;;22.13;10.27;;;14.10;99.90;;;;;;4994696;28;20057;-68
2021/06/30 12:27:45;;;;;;;15.57;8.68;;;14.20;99.90;;;;;;4987366;28;20550;-68
2021/06/30 12:30:25;;;;;;;13.25;8.73;;;14.10;99.90;;;;;;4995499;28;20396;-71
2021/06/30 12:32:52;;;;;;;15.05;8.65;;;14.10;99.90;;;;;;4989920;28;20046;-69
2021/06/30 12:35:25;;;;;;;;;;;14.10;99.90;;;;;;4992392;28;20123;-71
2021/06/30 12:38:04;;;;;;;22.77;9.27;;;14.20;99.90;;;;;;4988556;28;19925;-71
2021/06/30 12:40:30;;;;;;;;;;;14.20;99.90;;;;;;4997856;28;20042;-72
2021/06/30 12:43:05;;;;;;;22.08;11.15;;;14.20;99.90;;;;;;4991366;28;19918;-68
2021/06/30 12:45:41;;;;;;;15.93;10.18;;;14.20;99.90;;;;;;4987722;28;20050;-70